SWA2718 KMCO-KTYS
Flight info
| Callsign | SWA2718 |
|---|---|
| Flight time | 1h 19m |
| Altitude | 36000 |
| Route | JEEMY4 PAINN SHRKS Q77 TEUFL/N0452F350 Q77 WIGVO/N0450F360 ODF HIGGI |
| Aircraft | B737/M-SADE2E3GIJ4RWZ/LB1D1 |
Departure
| Time | 2026-04-25 21:27 |
|---|---|
| Airport | Orlando International Airport (KMCO) |
Arrival
| Time | 2026-04-25 22:47 |
|---|---|
| Airport | McGhee Tyson Airport (KTYS) |
| Time | Latitude | Longitude | Altitude | Speed | Heading |
|---|---|---|---|---|---|
| 2026-04-25 20:41 | 28.43589 | -81.30330 | 90 ft | 0 kts | 163° |
| 2026-04-25 21:11 | 28.43596 | -81.30332 | 90 ft | 2 kts | 165° |
| 2026-04-25 21:12 | 28.43610 | -81.30337 | 90 ft | 2 kts | 163° |
| 2026-04-25 21:12 | 28.43624 | -81.30341 | 90 ft | 2 kts | 163° |
| 2026-04-25 21:12 | 28.43638 | -81.30347 | 90 ft | 2 kts | 163° |
| 2026-04-25 21:12 | 28.43646 | -81.30349 | 90 ft | 1 kts | 154° |
| 2026-04-25 21:13 | 28.43652 | -81.30363 | 90 ft | 1 kts | 72° |
| 2026-04-25 21:13 | 28.43644 | -81.30374 | 90 ft | 2 kts | 44° |
| 2026-04-25 21:13 | 28.43635 | -81.30386 | 89 ft | 0 kts | 54° |
| 2026-04-25 21:13 | 28.43634 | -81.30388 | 89 ft | 0 kts | 53° |
| 2026-04-25 21:16 | 28.43637 | -81.30383 | 89 ft | 2 kts | 51° |
| 2026-04-25 21:17 | 28.43649 | -81.30366 | 90 ft | 1 kts | 51° |
| 2026-04-25 21:17 | 28.43651 | -81.30364 | 90 ft | 0 kts | 51° |
| 2026-04-25 21:20 | 28.43669 | -81.30338 | 91 ft | 6 kts | 51° |
| 2026-04-25 21:20 | 28.43719 | -81.30267 | 91 ft | 14 kts | 52° |
| 2026-04-25 21:21 | 28.43778 | -81.30181 | 91 ft | 13 kts | 52° |
| 2026-04-25 21:21 | 28.43825 | -81.30099 | 91 ft | 11 kts | 74° |
| 2026-04-25 21:21 | 28.43820 | -81.30011 | 91 ft | 10 kts | 108° |
| 2026-04-25 21:21 | 28.43782 | -81.29936 | 91 ft | 12 kts | 136° |
| 2026-04-25 21:22 | 28.43704 | -81.29894 | 91 ft | 12 kts | 170° |
| 2026-04-25 21:22 | 28.43633 | -81.29889 | 91 ft | 7 kts | 179° |
| 2026-04-25 21:22 | 28.43586 | -81.29888 | 91 ft | 6 kts | 178° |
| 2026-04-25 21:22 | 28.43556 | -81.29868 | 91 ft | 5 kts | 122° |
| 2026-04-25 21:23 | 28.43549 | -81.29820 | 91 ft | 5 kts | 89° |
| 2026-04-25 21:23 | 28.43550 | -81.29781 | 91 ft | 4 kts | 89° |
| 2026-04-25 21:23 | 28.43550 | -81.29747 | 91 ft | 4 kts | 90° |
| 2026-04-25 21:23 | 28.43550 | -81.29713 | 91 ft | 3 kts | 90° |
| 2026-04-25 21:24 | 28.43550 | -81.29700 | 91 ft | 0 kts | 90° |
| 2026-04-25 21:25 | 28.43550 | -81.29662 | 91 ft | 9 kts | 90° |
| 2026-04-25 21:25 | 28.43532 | -81.29591 | 91 ft | 9 kts | 153° |
| 2026-04-25 21:25 | 28.43505 | -81.29587 | 91 ft | 0 kts | 180° |
| 2026-04-25 21:26 | 28.43371 | -81.29586 | 91 ft | 53 kts | 180° |
| 2026-04-25 21:27 | 28.42739 | -81.29579 | 89 ft | 125 kts | 180° |
| 2026-04-25 21:27 | 28.41712 | -81.29568 | 352 ft | 157 kts | 180° |
| 2026-04-25 21:27 | 28.40628 | -81.29565 | 1066 ft | 160 kts | 180° |
| 2026-04-25 21:27 | 28.39508 | -81.29552 | 1739 ft | 167 kts | 179° |
| 2026-04-25 21:28 | 28.38331 | -81.29455 | 2361 ft | 177 kts | 166° |
| 2026-04-25 21:28 | 28.37245 | -81.28773 | 2992 ft | 190 kts | 141° |
| 2026-04-25 21:28 | 28.36152 | -81.27777 | 3405 ft | 215 kts | 147° |
| 2026-04-25 21:28 | 28.34859 | -81.26782 | 3938 ft | 238 kts | 143° |
| 2026-04-25 21:29 | 28.33819 | -81.25230 | 4417 ft | 265 kts | 111° |
| 2026-04-25 21:29 | 28.33732 | -81.23120 | 5189 ft | 279 kts | 76° |
| 2026-04-25 21:29 | 28.34745 | -81.21231 | 6139 ft | 289 kts | 40° |
| 2026-04-25 21:29 | 28.36506 | -81.20277 | 7298 ft | 291 kts | 8° |
| 2026-04-25 21:30 | 28.38480 | -81.20505 | 8452 ft | 291 kts | 339° |
| 2026-04-25 21:30 | 28.40324 | -81.21370 | 9601 ft | 294 kts | 336° |
| 2026-04-25 21:30 | 28.42246 | -81.22162 | 10683 ft | 300 kts | 340° |
| 2026-04-25 21:30 | 28.43585 | -81.22660 | 11137 ft | 314 kts | 340° |
| 2026-04-25 21:31 | 28.46480 | -81.23723 | 11728 ft | 349 kts | 340° |
| 2026-04-25 21:31 | 28.48819 | -81.24571 | 12570 ft | 361 kts | 340° |
| 2026-04-25 21:31 | 28.51217 | -81.25434 | 13543 ft | 368 kts | 340° |
| 2026-04-25 21:31 | 28.53680 | -81.26319 | 14544 ft | 373 kts | 340° |
| 2026-04-25 21:32 | 28.56133 | -81.27201 | 15537 ft | 378 kts | 339° |
| 2026-04-25 21:32 | 28.58650 | -81.28106 | 16499 ft | 382 kts | 339° |
| 2026-04-25 21:32 | 28.61179 | -81.29015 | 17421 ft | 387 kts | 339° |
| 2026-04-25 21:32 | 28.63744 | -81.29936 | 18312 ft | 392 kts | 338° |
| 2026-04-25 21:33 | 28.66317 | -81.30862 | 19170 ft | 396 kts | 338° |
| 2026-04-25 21:33 | 28.68951 | -81.31809 | 20018 ft | 401 kts | 338° |
| 2026-04-25 21:33 | 28.71620 | -81.32770 | 20840 ft | 405 kts | 338° |
| 2026-04-25 21:33 | 28.74291 | -81.33732 | 21622 ft | 410 kts | 337° |
| 2026-04-25 21:34 | 28.77006 | -81.34710 | 22381 ft | 414 kts | 337° |
| 2026-04-25 21:34 | 28.79748 | -81.35699 | 23115 ft | 418 kts | 337° |
| 2026-04-25 21:34 | 28.82547 | -81.36708 | 23842 ft | 423 kts | 336° |
| 2026-04-25 21:34 | 28.85326 | -81.37711 | 24536 ft | 426 kts | 336° |
| 2026-04-25 21:35 | 28.88150 | -81.38730 | 25214 ft | 430 kts | 336° |
| 2026-04-25 21:35 | 28.91028 | -81.39768 | 25878 ft | 434 kts | 336° |
| 2026-04-25 21:35 | 28.93957 | -81.40681 | 26510 ft | 442 kts | 341° |
| 2026-04-25 21:35 | 28.96981 | -81.41264 | 27116 ft | 451 kts | 346° |
| 2026-04-25 21:36 | 29.00117 | -81.41649 | 27734 ft | 455 kts | 347° |
| 2026-04-25 21:36 | 29.03266 | -81.42024 | 28326 ft | 458 kts | 347° |
| 2026-04-25 21:36 | 29.06398 | -81.42413 | 28895 ft | 461 kts | 347° |
| 2026-04-25 21:36 | 29.09598 | -81.42804 | 29455 ft | 464 kts | 347° |
| 2026-04-25 21:37 | 29.12790 | -81.43160 | 29983 ft | 468 kts | 348° |
| 2026-04-25 21:37 | 29.14988 | -81.43378 | 30341 ft | 470 kts | 348° |
| 2026-04-25 21:37 | 29.19253 | -81.43775 | 31376 ft | 464 kts | 348° |
| 2026-04-25 21:37 | 29.22462 | -81.44082 | 32018 ft | 463 kts | 347° |
| 2026-04-25 21:38 | 29.25646 | -81.44391 | 32631 ft | 461 kts | 347° |
| 2026-04-25 21:38 | 29.28800 | -81.44694 | 33214 ft | 460 kts | 347° |
| 2026-04-25 21:38 | 29.31968 | -81.44997 | 33773 ft | 459 kts | 347° |
| 2026-04-25 21:38 | 29.35146 | -81.45302 | 34318 ft | 458 kts | 347° |
| 2026-04-25 21:39 | 29.38287 | -81.45602 | 34842 ft | 457 kts | 347° |
| 2026-04-25 21:39 | 29.41429 | -81.45902 | 35346 ft | 455 kts | 347° |
| 2026-04-25 21:39 | 29.44592 | -81.46205 | 35817 ft | 454 kts | 347° |
| 2026-04-25 21:39 | 29.47751 | -81.46510 | 35932 ft | 458 kts | 347° |
| 2026-04-25 21:40 | 29.54043 | -81.47111 | 35921 ft | 455 kts | 347° |
| 2026-04-25 21:40 | 29.60282 | -81.47702 | 35918 ft | 453 kts | 347° |
| 2026-04-25 21:41 | 29.66561 | -81.48270 | 35917 ft | 454 kts | 347° |
| 2026-04-25 21:41 | 29.72845 | -81.48838 | 35917 ft | 454 kts | 347° |
| 2026-04-25 21:42 | 29.79127 | -81.49408 | 35917 ft | 453 kts | 347° |
| 2026-04-25 21:42 | 29.85358 | -81.49985 | 35917 ft | 452 kts | 346° |
| 2026-04-25 21:43 | 29.91430 | -81.51327 | 35918 ft | 439 kts | 335° |
| 2026-04-25 21:43 | 29.97203 | -81.53377 | 35912 ft | 439 kts | 335° |
| 2026-04-25 21:44 | 30.03047 | -81.55387 | 35903 ft | 439 kts | 334° |
| 2026-04-25 21:45 | 30.11754 | -81.58464 | 35892 ft | 438 kts | 334° |
| 2026-04-25 21:45 | 30.17581 | -81.60538 | 35890 ft | 438 kts | 334° |
| 2026-04-25 21:46 | 30.23354 | -81.62602 | 35890 ft | 438 kts | 334° |
| 2026-04-25 21:46 | 30.29170 | -81.64688 | 35893 ft | 438 kts | 334° |
| 2026-04-25 21:47 | 30.34950 | -81.66766 | 35893 ft | 438 kts | 334° |
| 2026-04-25 21:47 | 30.40772 | -81.68861 | 35892 ft | 437 kts | 334° |
| 2026-04-25 21:48 | 30.46549 | -81.70944 | 35884 ft | 437 kts | 334° |
| 2026-04-25 21:48 | 30.52357 | -81.73041 | 35876 ft | 438 kts | 334° |
| 2026-04-25 21:49 | 30.58104 | -81.75120 | 35872 ft | 438 kts | 334° |
| 2026-04-25 21:49 | 30.63983 | -81.77009 | 35875 ft | 445 kts | 340° |
| 2026-04-25 21:50 | 30.70092 | -81.78170 | 35877 ft | 447 kts | 341° |
| 2026-04-25 21:50 | 30.76188 | -81.79404 | 35877 ft | 447 kts | 341° |
| 2026-04-25 21:51 | 30.82287 | -81.80632 | 35875 ft | 447 kts | 341° |
| 2026-04-25 21:51 | 30.88382 | -81.81856 | 35874 ft | 447 kts | 341° |
| 2026-04-25 21:52 | 30.94509 | -81.83089 | 35879 ft | 448 kts | 342° |
| 2026-04-25 21:52 | 31.00620 | -81.84319 | 35885 ft | 450 kts | 343° |
| 2026-04-25 21:53 | 31.06803 | -81.85564 | 35889 ft | 451 kts | 344° |
| 2026-04-25 21:53 | 31.12936 | -81.86800 | 35888 ft | 451 kts | 344° |
| 2026-04-25 21:54 | 31.19093 | -81.88042 | 35887 ft | 450 kts | 344° |
| 2026-04-25 21:54 | 31.25240 | -81.89285 | 35887 ft | 451 kts | 344° |
| 2026-04-25 21:55 | 31.31412 | -81.90534 | 35888 ft | 451 kts | 344° |
| 2026-04-25 21:55 | 31.37543 | -81.91776 | 35890 ft | 451 kts | 344° |
| 2026-04-25 21:56 | 31.43713 | -81.93028 | 35890 ft | 451 kts | 344° |
| 2026-04-25 21:56 | 31.49877 | -81.94281 | 35890 ft | 451 kts | 344° |
| 2026-04-25 21:57 | 31.56003 | -81.95528 | 35890 ft | 451 kts | 344° |
| 2026-04-25 21:57 | 31.62175 | -81.96785 | 35890 ft | 451 kts | 344° |
| 2026-04-25 21:58 | 31.68324 | -81.98039 | 35890 ft | 451 kts | 344° |
| 2026-04-25 21:58 | 31.74462 | -81.99293 | 35881 ft | 451 kts | 344° |
| 2026-04-25 21:59 | 31.80628 | -82.00554 | 35872 ft | 451 kts | 344° |
| 2026-04-25 21:59 | 31.86818 | -82.01711 | 35866 ft | 454 kts | 348° |
| 2026-04-25 22:00 | 31.96303 | -82.02074 | 35868 ft | 458 kts | 352° |
| 2026-04-25 22:00 | 32.02642 | -82.02324 | 35869 ft | 458 kts | 352° |
| 2026-04-25 22:01 | 32.09010 | -82.02551 | 35869 ft | 458 kts | 352° |
| 2026-04-25 22:01 | 32.14279 | -82.02737 | 35869 ft | 458 kts | 352° |
| 2026-04-25 22:02 | 32.21665 | -82.02997 | 35869 ft | 458 kts | 352° |
| 2026-04-25 22:02 | 32.27996 | -82.03217 | 35870 ft | 458 kts | 352° |
| 2026-04-25 22:03 | 32.34343 | -82.03439 | 35869 ft | 458 kts | 352° |
| 2026-04-25 22:03 | 32.40721 | -82.03664 | 35868 ft | 457 kts | 352° |
| 2026-04-25 22:04 | 32.46854 | -82.04769 | 35867 ft | 445 kts | 337° |
| 2026-04-25 22:04 | 32.52454 | -82.07624 | 35871 ft | 438 kts | 328° |
| 2026-04-25 22:05 | 32.57983 | -82.10643 | 35871 ft | 439 kts | 329° |
| 2026-04-25 22:05 | 32.63481 | -82.13620 | 35871 ft | 438 kts | 329° |
| 2026-04-25 22:06 | 32.68989 | -82.16636 | 35871 ft | 438 kts | 329° |
| 2026-04-25 22:06 | 32.74517 | -82.19669 | 35871 ft | 438 kts | 329° |
| 2026-04-25 22:07 | 32.79109 | -82.22195 | 35871 ft | 438 kts | 329° |
| 2026-04-25 22:07 | 32.85526 | -82.25732 | 35866 ft | 438 kts | 329° |
| 2026-04-25 22:08 | 32.91059 | -82.28786 | 35860 ft | 438 kts | 329° |
| 2026-04-25 22:08 | 32.96556 | -82.31827 | 35853 ft | 438 kts | 329° |
| 2026-04-25 22:09 | 33.02039 | -82.34864 | 35861 ft | 438 kts | 328° |
| 2026-04-25 22:09 | 33.07579 | -82.37939 | 35872 ft | 440 kts | 327° |
| 2026-04-25 22:10 | 33.13079 | -82.40994 | 35884 ft | 441 kts | 327° |
| 2026-04-25 22:10 | 33.18664 | -82.44104 | 35908 ft | 443 kts | 327° |
| 2026-04-25 22:11 | 33.24181 | -82.47170 | 35926 ft | 441 kts | 327° |
| 2026-04-25 22:11 | 33.29733 | -82.50248 | 35935 ft | 441 kts | 327° |
| 2026-04-25 22:12 | 33.35268 | -82.53333 | 35936 ft | 441 kts | 327° |
| 2026-04-25 22:12 | 33.39864 | -82.55904 | 35935 ft | 442 kts | 327° |
| 2026-04-25 22:13 | 33.46346 | -82.59532 | 35935 ft | 441 kts | 327° |
| 2026-04-25 22:13 | 33.51893 | -82.62662 | 35931 ft | 441 kts | 327° |
| 2026-04-25 22:14 | 33.57377 | -82.65749 | 35924 ft | 441 kts | 326° |
| 2026-04-25 22:14 | 33.62903 | -82.68854 | 35916 ft | 440 kts | 326° |
| 2026-04-25 22:15 | 33.68424 | -82.71977 | 35912 ft | 441 kts | 326° |
| 2026-04-25 22:16 | 33.76695 | -82.76653 | 35905 ft | 440 kts | 326° |
| 2026-04-25 22:16 | 33.82211 | -82.79783 | 35900 ft | 441 kts | 326° |
| 2026-04-25 22:17 | 33.87699 | -82.82888 | 35899 ft | 439 kts | 326° |
| 2026-04-25 22:17 | 33.93205 | -82.85989 | 35899 ft | 435 kts | 326° |
| 2026-04-25 22:18 | 33.98609 | -82.89068 | 35899 ft | 431 kts | 326° |
| 2026-04-25 22:18 | 34.03992 | -82.92139 | 35899 ft | 431 kts | 326° |
| 2026-04-25 22:19 | 34.09404 | -82.95190 | 35899 ft | 427 kts | 326° |
| 2026-04-25 22:19 | 34.14674 | -82.98201 | 35898 ft | 426 kts | 326° |
| 2026-04-25 22:20 | 34.19944 | -83.01233 | 35899 ft | 421 kts | 326° |
| 2026-04-25 22:20 | 34.25193 | -83.04231 | 35899 ft | 419 kts | 327° |
| 2026-04-25 22:21 | 34.30353 | -83.07170 | 35899 ft | 418 kts | 327° |
| 2026-04-25 22:21 | 34.35562 | -83.10167 | 35901 ft | 419 kts | 326° |
| 2026-04-25 22:22 | 34.40778 | -83.13176 | 35906 ft | 419 kts | 326° |
| 2026-04-25 22:22 | 34.46024 | -83.16198 | 35908 ft | 419 kts | 327° |
| 2026-04-25 22:23 | 34.51215 | -83.19186 | 35910 ft | 418 kts | 327° |
| 2026-04-25 22:23 | 34.53844 | -83.20702 | 35727 ft | 417 kts | 326° |
| 2026-04-25 22:23 | 34.56419 | -83.22184 | 35086 ft | 416 kts | 327° |
| 2026-04-25 22:23 | 34.59004 | -83.23666 | 34363 ft | 417 kts | 327° |
| 2026-04-25 22:24 | 34.61626 | -83.25169 | 33577 ft | 419 kts | 327° |
| 2026-04-25 22:24 | 34.64224 | -83.26661 | 32801 ft | 420 kts | 327° |
| 2026-04-25 22:24 | 34.66812 | -83.28266 | 32061 ft | 416 kts | 323° |
| 2026-04-25 22:24 | 34.69212 | -83.30046 | 31134 ft | 417 kts | 319° |
| 2026-04-25 22:25 | 34.71473 | -83.32192 | 30129 ft | 415 kts | 312° |
| 2026-04-25 22:25 | 34.73555 | -83.34586 | 29482 ft | 409 kts | 310° |
| 2026-04-25 22:25 | 34.75574 | -83.36924 | 28859 ft | 407 kts | 311° |
| 2026-04-25 22:25 | 34.77616 | -83.39235 | 28227 ft | 403 kts | 311° |
| 2026-04-25 22:26 | 34.79640 | -83.41533 | 27568 ft | 400 kts | 311° |
| 2026-04-25 22:26 | 34.81628 | -83.43819 | 26961 ft | 396 kts | 311° |
| 2026-04-25 22:26 | 34.83593 | -83.46088 | 26342 ft | 393 kts | 311° |
| 2026-04-25 22:26 | 34.85566 | -83.48373 | 25728 ft | 389 kts | 311° |
| 2026-04-25 22:27 | 34.87514 | -83.50632 | 25115 ft | 385 kts | 311° |
| 2026-04-25 22:27 | 34.89406 | -83.52831 | 24520 ft | 382 kts | 311° |
| 2026-04-25 22:27 | 34.91327 | -83.55069 | 23899 ft | 379 kts | 311° |
| 2026-04-25 22:27 | 34.93202 | -83.57256 | 23304 ft | 376 kts | 311° |
| 2026-04-25 22:28 | 34.95071 | -83.59439 | 22702 ft | 372 kts | 311° |
| 2026-04-25 22:28 | 34.96932 | -83.61614 | 22092 ft | 370 kts | 311° |
| 2026-04-25 22:28 | 34.98747 | -83.63738 | 21502 ft | 367 kts | 312° |
| 2026-04-25 22:28 | 35.00561 | -83.65863 | 20900 ft | 364 kts | 311° |
| 2026-04-25 22:29 | 35.02383 | -83.67997 | 20306 ft | 362 kts | 311° |
| 2026-04-25 22:29 | 35.04167 | -83.70090 | 19736 ft | 359 kts | 311° |
| 2026-04-25 22:29 | 35.05957 | -83.72189 | 19148 ft | 357 kts | 311° |
| 2026-04-25 22:30 | 35.09506 | -83.76361 | 17834 ft | 356 kts | 311° |
| 2026-04-25 22:30 | 35.11258 | -83.78421 | 17296 ft | 352 kts | 311° |
| 2026-04-25 22:30 | 35.13003 | -83.80473 | 16739 ft | 349 kts | 311° |
| 2026-04-25 22:30 | 35.14156 | -83.81831 | 16357 ft | 348 kts | 311° |
| 2026-04-25 22:31 | 35.16465 | -83.84551 | 15585 ft | 345 kts | 311° |
| 2026-04-25 22:31 | 35.18182 | -83.86575 | 15009 ft | 343 kts | 311° |
| 2026-04-25 22:31 | 35.19870 | -83.88567 | 14438 ft | 341 kts | 311° |
| 2026-04-25 22:31 | 35.21561 | -83.90562 | 13865 ft | 339 kts | 312° |
| 2026-04-25 22:32 | 35.23239 | -83.92545 | 13296 ft | 337 kts | 312° |
| 2026-04-25 22:32 | 35.24902 | -83.94510 | 12726 ft | 335 kts | 312° |
| 2026-04-25 22:32 | 35.26577 | -83.96491 | 12153 ft | 334 kts | 312° |
| 2026-04-25 22:32 | 35.28239 | -83.98457 | 11584 ft | 332 kts | 312° |
| 2026-04-25 22:33 | 35.29876 | -84.00396 | 11056 ft | 328 kts | 313° |
| 2026-04-25 22:33 | 35.31484 | -84.02299 | 10703 ft | 319 kts | 314° |
| 2026-04-25 22:33 | 35.33032 | -84.04131 | 10525 ft | 295 kts | 314° |
| 2026-04-25 22:33 | 35.34444 | -84.05804 | 10398 ft | 273 kts | 314° |
| 2026-04-25 22:34 | 35.35756 | -84.07362 | 10271 ft | 258 kts | 314° |
| 2026-04-25 22:34 | 35.37042 | -84.08893 | 10053 ft | 260 kts | 314° |
| 2026-04-25 22:34 | 35.38325 | -84.10417 | 9727 ft | 257 kts | 314° |
| 2026-04-25 22:34 | 35.39611 | -84.11945 | 9396 ft | 254 kts | 314° |
| 2026-04-25 22:35 | 35.40857 | -84.13426 | 9075 ft | 252 kts | 314° |
| 2026-04-25 22:35 | 35.42115 | -84.14923 | 8753 ft | 249 kts | 315° |
| 2026-04-25 22:35 | 35.43347 | -84.16389 | 8437 ft | 247 kts | 315° |
| 2026-04-25 22:35 | 35.44559 | -84.17831 | 8127 ft | 244 kts | 315° |
| 2026-04-25 22:36 | 35.45783 | -84.19289 | 7817 ft | 249 kts | 315° |
| 2026-04-25 22:36 | 35.47028 | -84.20773 | 7493 ft | 249 kts | 315° |
| 2026-04-25 22:36 | 35.48250 | -84.22229 | 7179 ft | 246 kts | 315° |
| 2026-04-25 22:36 | 35.49480 | -84.23695 | 6864 ft | 244 kts | 315° |
| 2026-04-25 22:37 | 35.50686 | -84.25135 | 6617 ft | 239 kts | 316° |
| 2026-04-25 22:37 | 35.51850 | -84.26524 | 6525 ft | 228 kts | 316° |
| 2026-04-25 22:37 | 35.52945 | -84.27831 | 6458 ft | 222 kts | 316° |
| 2026-04-25 22:37 | 35.54045 | -84.29145 | 6373 ft | 220 kts | 316° |
| 2026-04-25 22:38 | 35.55120 | -84.30430 | 6298 ft | 209 kts | 316° |
| 2026-04-25 22:38 | 35.56246 | -84.31503 | 6222 ft | 208 kts | 335° |
| 2026-04-25 22:38 | 35.57668 | -84.31715 | 6117 ft | 208 kts | 7° |
| 2026-04-25 22:38 | 35.58981 | -84.31016 | 5897 ft | 211 kts | 35° |
| 2026-04-25 22:39 | 35.59893 | -84.29595 | 5677 ft | 213 kts | 56° |
| 2026-04-25 22:39 | 35.60665 | -84.28061 | 5452 ft | 211 kts | 53° |
| 2026-04-25 22:39 | 35.61459 | -84.26544 | 5230 ft | 210 kts | 54° |
| 2026-04-25 22:39 | 35.62242 | -84.25034 | 5011 ft | 209 kts | 54° |
| 2026-04-25 22:40 | 35.63014 | -84.23542 | 4803 ft | 205 kts | 54° |
| 2026-04-25 22:40 | 35.63765 | -84.22090 | 4592 ft | 200 kts | 54° |
| 2026-04-25 22:40 | 35.64503 | -84.20664 | 4385 ft | 192 kts | 54° |
| 2026-04-25 22:40 | 35.65200 | -84.19315 | 4185 ft | 182 kts | 54° |
| 2026-04-25 22:41 | 35.65857 | -84.18043 | 3996 ft | 172 kts | 54° |
| 2026-04-25 22:41 | 35.66480 | -84.16859 | 3856 ft | 158 kts | 49° |
| 2026-04-25 22:41 | 35.67224 | -84.15936 | 3758 ft | 152 kts | 40° |
| 2026-04-25 22:41 | 35.67976 | -84.15030 | 3646 ft | 144 kts | 41° |
| 2026-04-25 22:42 | 35.68680 | -84.14178 | 3546 ft | 142 kts | 41° |
| 2026-04-25 22:42 | 35.69348 | -84.13366 | 3454 ft | 132 kts | 41° |
| 2026-04-25 22:42 | 35.69974 | -84.12540 | 3344 ft | 131 kts | 43° |
| 2026-04-25 22:42 | 35.70598 | -84.11741 | 3220 ft | 130 kts | 42° |
| 2026-04-25 22:43 | 35.71227 | -84.10957 | 3101 ft | 129 kts | 42° |
| 2026-04-25 22:43 | 35.71863 | -84.10176 | 2985 ft | 129 kts | 41° |
| 2026-04-25 22:43 | 35.72502 | -84.09396 | 2878 ft | 129 kts | 41° |
| 2026-04-25 22:43 | 35.73137 | -84.08622 | 2788 ft | 130 kts | 41° |
| 2026-04-25 22:44 | 35.73780 | -84.07841 | 2618 ft | 129 kts | 41° |
| 2026-04-25 22:44 | 35.74416 | -84.07069 | 2456 ft | 129 kts | 42° |
| 2026-04-25 22:44 | 35.75053 | -84.06299 | 2285 ft | 128 kts | 42° |
| 2026-04-25 22:44 | 35.75685 | -84.05538 | 2105 ft | 129 kts | 42° |
| 2026-04-25 22:45 | 35.76324 | -84.04767 | 1950 ft | 127 kts | 42° |
| 2026-04-25 22:45 | 35.76969 | -84.04006 | 1782 ft | 128 kts | 41° |
| 2026-04-25 22:45 | 35.77618 | -84.03258 | 1606 ft | 128 kts | 40° |
| 2026-04-25 22:45 | 35.78270 | -84.02518 | 1440 ft | 128 kts | 41° |
| 2026-04-25 22:46 | 35.78900 | -84.01771 | 1271 ft | 126 kts | 43° |
| 2026-04-25 22:46 | 35.79526 | -84.00984 | 1097 ft | 128 kts | 44° |
| 2026-04-25 22:46 | 35.80146 | -84.00230 | 919 ft | 120 kts | 43° |
| 2026-04-25 22:46 | 35.80605 | -83.99676 | 951 ft | 58 kts | 44° |
| 2026-04-25 22:47 | 35.80830 | -83.99398 | 960 ft | 38 kts | 44° |
| 2026-04-25 22:47 | 35.80989 | -83.99202 | 964 ft | 27 kts | 44° |
| 2026-04-25 22:47 | 35.81074 | -83.99084 | 967 ft | 10 kts | 80° |
| 2026-04-25 22:47 | 35.81015 | -83.99040 | 964 ft | 9 kts | 178° |
| 2026-04-25 22:48 | 35.80995 | -83.99039 | 964 ft | 1 kts | 178° |
| 2026-04-25 22:48 | 35.80982 | -83.99039 | 963 ft | 1 kts | 178° |
| 2026-04-25 22:48 | 35.80969 | -83.99038 | 963 ft | 1 kts | 178° |
| 2026-04-25 22:48 | 35.80955 | -83.99037 | 962 ft | 2 kts | 178° |
| 2026-04-25 22:49 | 35.80940 | -83.99036 | 961 ft | 4 kts | 176° |
| 2026-04-25 22:49 | 35.80892 | -83.99044 | 959 ft | 10 kts | 208° |
| 2026-04-25 22:49 | 35.80840 | -83.99103 | 959 ft | 9 kts | 224° |
| 2026-04-25 22:49 | 35.80799 | -83.99153 | 959 ft | 7 kts | 225° |
| 2026-04-25 22:50 | 35.80755 | -83.99184 | 957 ft | 6 kts | 173° |
| 2026-04-25 22:50 | 35.80719 | -83.99146 | 956 ft | 4 kts | 132° |
| 2026-04-25 22:50 | 35.80709 | -83.99134 | 956 ft | 0 kts | 136° |
| 2026-04-25 22:50 | 35.80706 | -83.99130 | 955 ft | 0 kts | 136° |